Miguel Oliver — ECLX — position and weather

sailwx.info

Track history (hours):
 
Tides and Currents Weather Stations Pressure Air Temp Water Temp Dewpoint Dewpoint Depression Visibility Wind Speed Wind Dir Waves Ship Positions

Oceanographic research ship Miguel Oliver (Spain)

Ship's website: http://www.mapa.es/es/pesca/pags/miguel_web/index.htm

Last reported at 2015-Jan-27 20:22 UTC. Time now 2015-Jan-27 21:06 UTC.
Position N 43°33' W 002°29'.

Length 70 m; draft 4.8 m.

Type: Other ship. MMSI: 225322000.

Date/timePositionNaut miles runAvg speedWind from/ knotsBaromVisibWave heightAir tempDewpointWater temp
2015-Jan-27 20:22N 43°33' W 002°29'11 0.7
2015-Jan-27 04:33N 43°33' W 002°45'1 1.0
2015-Jan-27 03:30N 43°33' W 002°43'5 5.6
2015-Jan-27 02:33N 43°33' W 002°36'5 5.0
2015-Jan-27 01:30N 43°33' W 002°28'7 6.9
2015-Jan-27 00:33N 43°33' W 002°38'7 6.8
2015-Jan-26 23:33N 43°33' W 002°47'1 0.8
2015-Jan-26 22:33N 43°33' W 002°48'6 5.9
2015-Jan-26 21:33N 43°33' W 002°56'6 6.1
2015-Jan-26 20:33N 43°33' W 003°05'4 3.6
2015-Jan-26 19:33N 43°34' W 003°10'4 4.0
2015-Jan-26 18:33N 43°34' W 003°04'6 5.7
2015-Jan-26 17:33N 43°34' W 002°56'5 4.9
2015-Jan-26 16:33N 43°34' W 002°49'1 1.2
2015-Jan-26 15:33N 43°34' W 002°48'6 6.4
2015-Jan-26 14:33N 43°34' W 002°39'8 6.5
2015-Jan-26 13:19N 43°34' W 002°28'1 0.7
2015-Jan-26 12:32N 43°34' W 002°28'125 3.0
2015-Jan-24 18:08N 43°50' W 005°20'711.1
2015-Jan-24 17:30N 43°50' W 005°30'1411.0
2015-Jan-24 16:15N 43°50' W 005°49'811.2
2015-Jan-24 15:32N 43°51' W 006°00'  
Track history (hours):
 
Tides and Currents Weather Stations Pressure Air Temp Water Temp Dewpoint Dewpoint Depression Visibility Wind Speed Wind Dir Waves Ship Positions

Oceanographic research ship Miguel Oliver (Spain)

Ship's website: http://www.mapa.es/es/pesca/pags/miguel_web/index.htm

Last reported at 2015-Jan-27 20:22 UTC. Time now 2015-Jan-27 21:06 UTC.
Position N 43°33' W 002°29'.

Length 70 m; draft 4.8 m.

Type: Other ship. MMSI: 225322000.

Date/timePositionNaut miles runAvg speedWind from/ knotsBaromVisibWave heightAir tempDewpointWater temp
2015-Jan-27 20:22N 43°33' W 002°29'11 0.7
2015-Jan-27 04:33N 43°33' W 002°45'1 1.0
2015-Jan-27 03:30N 43°33' W 002°43'5 5.6
2015-Jan-27 02:33N 43°33' W 002°36'5 5.0
2015-Jan-27 01:30N 43°33' W 002°28'7 6.9
2015-Jan-27 00:33N 43°33' W 002°38'7 6.8
2015-Jan-26 23:33N 43°33' W 002°47'1 0.8
2015-Jan-26 22:33N 43°33' W 002°48'6 5.9
2015-Jan-26 21:33N 43°33' W 002°56'6 6.1
2015-Jan-26 20:33N 43°33' W 003°05'4 3.6
2015-Jan-26 19:33N 43°34' W 003°10'4 4.0
2015-Jan-26 18:33N 43°34' W 003°04'6 5.7
2015-Jan-26 17:33N 43°34' W 002°56'5 4.9
2015-Jan-26 16:33N 43°34' W 002°49'1 1.2
2015-Jan-26 15:33N 43°34' W 002°48'6 6.4
2015-Jan-26 14:33N 43°34' W 002°39'8 6.5
2015-Jan-26 13:19N 43°34' W 002°28'1 0.7
2015-Jan-26 12:32N 43°34' W 002°28'125 3.0
2015-Jan-24 18:08N 43°50' W 005°20'711.1
2015-Jan-24 17:30N 43°50' W 005°30'1411.0
2015-Jan-24 16:15N 43°50' W 005°49'811.2
2015-Jan-24 15:32N 43°51' W 006°00'  

Dump ship's entire track history